Time;durP1;ratioP1;P1;durP2;ratioP2;P2;SDS_P1;SDS_P2;PMS_P1;PMS_P2;Temp;Humidity;BMP_temperature;BMP_pressure;BME280_temperature;BME280_humidity;BME280_pressure;Samples;Min_cycle;Max_cycle;Signal;HPM_P1;HPM_P2
2021/07/09 00:02:03;;;;;;;9.00;8.40;;;17.30;99.90;;;;;;5013142;28;20842;-65
2021/07/09 00:04:29;;;;;;;10.30;9.40;;;17.30;99.90;;;;;;5012954;28;20470;-65
2021/07/09 00:06:57;;;;;;;10.50;9.70;;;17.20;99.90;;;;;;5013230;28;20449;-64
2021/07/09 00:09:26;;;;;;;10.70;9.60;;;17.20;99.90;;;;;;5013251;28;20504;-65
2021/07/09 00:11:54;;;;;;;9.30;8.60;;;17.30;99.90;;;;;;5012897;28;20468;-65
2021/07/09 00:14:25;;;;;;;9.50;8.80;;;17.30;99.90;;;;;;5012803;28;20863;-66
2021/07/09 00:16:51;;;;;;;10.23;9.53;;;17.30;99.90;;;;;;5012827;28;20950;-66
2021/07/09 00:19:18;;;;;;;10.23;9.53;;;17.30;99.90;;;;;;5012862;28;20442;-66
2021/07/09 00:21:45;;;;;;;10.10;9.17;;;17.30;99.90;;;;;;5012665;28;20500;-65
2021/07/09 00:24:14;;;;;;;11.17;10.30;;;17.30;99.90;;;;;;5013028;28;20489;-65
2021/07/09 00:26:41;;;;;;;10.93;10.03;;;17.40;99.90;;;;;;5012725;28;20449;-65
2021/07/09 00:29:08;;;;;;;10.10;9.40;;;17.40;99.90;;;;;;5012725;28;20449;-65
2021/07/09 00:31:35;;;;;;;9.27;8.57;;;17.40;99.90;;;;;;5012416;28;20449;-66
2021/07/09 00:34:05;;;;;;;9.87;9.20;;;17.40;99.90;;;;;;5012535;28;20466;-66
2021/07/09 00:36:32;;;;;;;10.47;9.67;;;17.40;99.90;;;;;;5012580;28;20442;-66
2021/07/09 00:39:00;;;;;;;9.13;8.53;;;17.40;99.90;;;;;;5012493;28;20484;-65
2021/07/09 00:41:29;;;;;;;8.73;7.97;;;17.40;99.90;;;;;;5012335;28;20452;-65
2021/07/09 00:43:56;;;;;;;9.70;8.80;;;17.50;99.90;;;;;;5012350;28;20473;-66
2021/07/09 00:46:30;;;;;;;9.00;8.33;;;17.50;99.90;;;;;;5012497;28;20448;-65
2021/07/09 00:48:57;;;;;;;9.00;8.30;;;17.50;99.90;;;;;;5012329;28;20499;-64
2021/07/09 00:51:23;;;;;;;9.57;8.77;;;17.60;99.90;;;;;;5012256;28;20442;-64
2021/07/09 00:53:50;;;;;;;10.00;9.20;;;17.60;99.90;;;;;;5012323;28;20453;-66
2021/07/09 00:56:17;;;;;;;10.43;9.40;;;17.60;99.90;;;;;;5012307;28;20519;-65
2021/07/09 00:58:45;;;;;;;10.80;9.87;;;17.60;99.90;;;;;;5012351;28;20482;-64
2021/07/09 01:01:11;;;;;;;9.60;8.90;;;17.60;99.90;;;;;;5012029;28;20525;-66
2021/07/09 01:03:38;;;;;;;10.03;9.13;;;17.60;99.90;;;;;;5012017;28;20442;-65
2021/07/09 01:06:05;;;;;;;10.73;9.73;;;17.60;99.90;;;;;;5012353;28;20457;-64
2021/07/09 01:08:32;;;;;;;10.53;9.57;;;17.60;99.90;;;;;;5012157;28;20442;-64
2021/07/09 01:10:59;;;;;;;10.87;9.97;;;17.60;99.90;;;;;;5012077;28;20835;-66
2021/07/09 01:13:26;;;;;;;9.80;9.10;;;17.60;99.90;;;;;;5011996;28;20442;-65
2021/07/09 01:15:54;;;;;;;11.33;10.43;;;17.60;99.90;;;;;;5011945;28;20470;-65
2021/07/09 01:18:21;;;;;;;11.67;10.77;;;17.60;99.90;;;;;;5011932;28;20482;-66
2021/07/09 01:20:48;;;;;;;10.73;10.00;;;17.60;99.90;;;;;;5011938;28;20442;-64
2021/07/09 01:23:19;;;;;;;10.73;9.93;;;17.60;99.90;;;;;;5011881;28;20445;-64
2021/07/09 01:25:47;;;;;;;9.90;9.10;;;17.60;99.90;;;;;;5011779;28;20473;-65
2021/07/09 01:28:14;;;;;;;10.13;9.23;;;17.50;99.90;;;;;;5015634;28;20449;-64
2021/07/09 01:30:41;;;;;;;10.30;9.50;;;17.60;99.90;;;;;;5015972;28;20442;-64
2021/07/09 01:33:07;;;;;;;10.57;9.83;;;17.60;99.90;;;;;;5015681;28;20959;-66
2021/07/09 01:35:34;;;;;;;11.70;10.70;;;17.60;99.90;;;;;;5015795;28;20470;-65
2021/07/09 01:38:04;;;;;;;11.97;10.87;;;17.60;99.90;;;;;;5015764;28;20477;-64
2021/07/09 01:40:31;;;;;;;12.13;10.63;;;17.60;99.90;;;;;;5015960;28;20806;-65
2021/07/09 01:42:59;;;;;;;12.97;11.00;;;17.60;99.90;;;;;;5015533;28;20457;-66
2021/07/09 01:45:27;;;;;;;10.90;9.90;;;17.60;99.90;;;;;;5015603;28;20473;-66
2021/07/09 01:47:57;;;;;;;14.70;13.60;;;17.60;99.90;;;;;;5015541;28;20438;-64
2021/07/09 01:50:24;;;;;;;12.30;11.20;;;17.50;99.90;;;;;;5015786;28;20441;-64
2021/07/09 01:52:52;;;;;;;15.07;13.00;;;17.50;99.90;;;;;;5015410;28;20445;-64
2021/07/09 01:55:20;;;;;;;11.67;10.77;;;17.50;99.90;;;;;;5015499;28;20474;-64
2021/07/09 01:57:47;;;;;;;14.00;12.90;;;17.50;99.90;;;;;;5015443;28;20484;-65
2021/07/09 02:00:18;;;;;;;13.30;12.30;;;17.50;99.90;;;;;;5015403;28;20444;-65
2021/07/09 02:02:45;;;;;;;11.77;10.90;;;17.50;99.90;;;;;;5015223;28;20442;-65
2021/07/09 02:05:13;;;;;;;13.17;12.20;;;17.50;99.90;;;;;;5015248;28;20997;-65
2021/07/09 02:07:41;;;;;;;13.43;12.03;;;17.50;99.90;;;;;;5015373;28;20442;-65
2021/07/09 02:10:09;;;;;;;12.83;11.60;;;17.50;99.90;;;;;;5015419;28;20446;-65
2021/07/09 02:12:36;;;;;;;10.83;9.93;;;17.50;99.90;;;;;;5015049;28;20469;-64
2021/07/09 02:15:06;;;;;;;12.10;11.10;;;17.50;99.90;;;;;;5015163;28;20462;-63
2021/07/09 02:17:35;;;;;;;10.47;9.73;;;17.50;99.90;;;;;;5015027;28;20457;-64
2021/07/09 02:20:01;;;;;;;10.87;9.97;;;17.40;99.90;;;;;;5015137;28;20468;-64
2021/07/09 02:22:29;;;;;;;13.53;12.10;;;17.40;99.90;;;;;;5014900;28;20449;-66
2021/07/09 02:24:55;;;;;;;11.17;10.10;;;17.40;99.90;;;;;;5014731;28;20561;-65
2021/07/09 02:27:22;;;;;;;16.23;11.50;;;17.40;99.90;;;;;;5015014;28;20452;-65
2021/07/09 02:29:49;;;;;;;13.57;12.40;;;17.40;99.90;;;;;;5014892;28;20449;-65
2021/07/09 02:32:15;;;;;;;13.80;12.27;;;17.30;99.90;;;;;;5014619;28;20461;-64
2021/07/09 02:34:43;;;;;;;13.90;12.63;;;17.30;99.90;;;;;;5014679;28;20473;-62
2021/07/09 02:37:12;;;;;;;14.20;12.93;;;17.30;99.90;;;;;;5014315;28;20452;-64
2021/07/09 02:39:41;;;;;;;13.20;11.00;;;17.30;99.90;;;;;;5014611;28;20556;-64
2021/07/09 02:42:09;;;;;;;13.10;12.00;;;17.30;99.90;;;;;;5014449;28;20445;-63
2021/07/09 02:44:37;;;;;;;14.07;12.70;;;17.30;99.90;;;;;;5014683;28;20471;-65
2021/07/09 02:47:04;;;;;;;12.90;11.80;;;17.40;99.90;;;;;;5014658;28;20808;-64
2021/07/09 02:49:30;;;;;;;13.40;12.00;;;17.40;99.90;;;;;;5014661;28;20442;-64
2021/07/09 02:51:58;;;;;;;12.63;11.37;;;17.40;99.90;;;;;;5014281;28;20457;-65
2021/07/09 02:54:25;;;;;;;14.50;13.10;;;17.50;99.90;;;;;;5014427;28;20516;-65
2021/07/09 02:56:52;;;;;;;14.90;13.00;;;17.40;99.90;;;;;;5014376;28;20450;-65
2021/07/09 02:59:19;;;;;;;14.20;12.87;;;17.50;99.90;;;;;;5014314;28;20489;-63
2021/07/09 03:01:45;;;;;;;14.50;13.30;;;17.50;99.90;;;;;;5014133;28;20442;-64
2021/07/09 03:04:13;;;;;;;17.20;15.43;;;17.50;99.90;;;;;;5014099;28;20808;-64
2021/07/09 03:06:40;;;;;;;14.37;13.00;;;17.50;99.90;;;;;;5014210;28;20446;-64
2021/07/09 03:09:10;;;;;;;15.33;13.70;;;17.50;99.90;;;;;;5014203;28;20472;-65
2021/07/09 03:11:37;;;;;;;15.10;13.60;;;17.50;99.90;;;;;;5013875;28;20449;-65
2021/07/09 03:14:05;;;;;;;16.33;15.00;;;17.50;99.90;;;;;;5014029;28;20465;-64
2021/07/09 03:16:32;;;;;;;15.00;13.37;;;17.50;99.90;;;;;;5013862;28;20999;-63
2021/07/09 03:18:59;;;;;;;21.90;16.60;;;17.60;99.90;;;;;;5013883;28;20991;-64
2021/07/09 03:21:25;;;;;;;20.47;18.47;;;17.60;99.90;;;;;;5013805;28;20450;-64
2021/07/09 03:23:52;;;;;;;23.00;20.70;;;17.60;99.90;;;;;;5013714;28;20441;-62
2021/07/09 03:26:20;;;;;;;24.03;20.93;;;17.60;99.90;;;;;;5013865;28;20453;-64
2021/07/09 03:28:47;;;;;;;20.77;18.60;;;17.60;99.90;;;;;;5013821;28;20446;-64
2021/07/09 03:31:14;;;;;;;22.50;20.50;;;17.60;99.90;;;;;;5013528;28;20457;-64
2021/07/09 03:33:40;;;;;;;26.57;23.97;;;17.60;99.90;;;;;;5013915;28;20781;-64
2021/07/09 03:36:07;;;;;;;25.47;22.43;;;17.60;99.90;;;;;;5013857;28;20446;-64
2021/07/09 03:38:34;;;;;;;24.07;21.67;;;17.60;99.90;;;;;;5013439;28;20482;-65
2021/07/09 03:41:01;;;;;;;25.83;22.70;;;17.60;99.90;;;;;;5013412;28;20442;-62
2021/07/09 03:43:29;;;;;;;26.70;23.27;;;17.60;99.90;;;;;;5013318;28;20452;-65
2021/07/09 03:45:55;;;;;;;27.33;24.43;;;17.60;99.90;;;;;;5013359;28;20478;-63
2021/07/09 03:48:22;;;;;;;27.87;25.20;;;17.60;99.90;;;;;;5013637;28;20442;-65
2021/07/09 03:50:49;;;;;;;27.87;24.90;;;17.60;99.90;;;;;;5012717;28;20450;-63
2021/07/09 03:53:15;;;;;;;27.13;24.73;;;17.60;99.90;;;;;;5013255;28;20500;-63
2021/07/09 03:55:42;;;;;;;29.00;26.00;;;17.60;99.90;;;;;;5013281;28;20489;-63
2021/07/09 03:58:09;;;;;;;31.80;28.40;;;17.70;99.90;;;;;;5013425;28;20485;-64
2021/07/09 04:00:37;;;;;;;29.90;24.50;;;17.70;99.90;;;;;;5013133;28;20453;-62
2021/07/09 04:03:04;;;;;;;29.10;26.00;;;17.70;99.90;;;;;;5012969;28;20438;-65
2021/07/09 04:05:31;;;;;;;31.13;28.00;;;17.70;99.90;;;;;;5013116;28;20470;-64
2021/07/09 04:07:58;;;;;;;28.40;25.17;;;17.70;99.90;;;;;;5013023;28;20453;-64
2021/07/09 04:10:25;;;;;;;30.77;27.77;;;17.70;99.90;;;;;;5013052;28;20446;-64
2021/07/09 04:12:51;;;;;;;30.50;27.50;;;17.70;99.90;;;;;;5012708;28;20445;-62
2021/07/09 04:15:19;;;;;;;29.60;26.93;;;17.70;99.90;;;;;;5012811;28;20550;-64
2021/07/09 04:17:47;;;;;;;30.13;27.07;;;17.70;99.90;;;;;;5012903;28;20581;-64
2021/07/09 04:20:15;;;;;;;31.23;28.23;;;17.70;99.90;;;;;;5012703;28;20478;-63
2021/07/09 04:22:42;;;;;;;27.83;25.47;;;17.80;99.90;;;;;;5012720;28;20504;-63
2021/07/09 04:25:11;;;;;;;29.60;26.80;;;17.80;99.90;;;;;;5012481;28;20482;-63
2021/07/09 04:27:38;;;;;;;32.63;29.60;;;17.90;99.90;;;;;;5012607;28;20453;-64
2021/07/09 04:30:07;;;;;;;28.93;25.93;;;17.90;99.90;;;;;;5012682;28;20438;-64
2021/07/09 04:32:34;;;;;;;30.67;27.37;;;18.00;99.90;;;;;;5012429;28;20446;-64
2021/07/09 04:35:02;;;;;;;28.87;26.40;;;18.00;99.90;;;;;;5012518;28;20524;-63
2021/07/09 04:37:30;;;;;;;31.70;28.33;;;18.00;99.90;;;;;;5012544;28;20438;-65
2021/07/09 04:39:57;;;;;;;31.17;28.33;;;18.00;99.90;;;;;;5012495;28;20477;-65
2021/07/09 04:42:25;;;;;;;31.53;28.47;;;18.00;99.90;;;;;;5012168;28;20442;-65
2021/07/09 04:44:51;;;;;;;32.40;29.30;;;18.00;99.90;;;;;;5012337;28;20470;-65
2021/07/09 04:47:18;;;;;;;29.63;26.83;;;18.00;99.90;;;;;;5012388;28;20499;-65
2021/07/09 04:49:45;;;;;;;30.27;27.37;;;18.00;99.90;;;;;;5012414;28;20919;-65
2021/07/09 04:52:13;;;;;;;32.13;29.13;;;18.00;99.90;;;;;;5012070;28;20797;-64
2021/07/09 04:54:39;;;;;;;32.10;29.00;;;18.00;99.90;;;;;;5012208;28;20478;-65
2021/07/09 04:57:06;;;;;;;31.87;29.07;;;18.10;99.90;;;;;;5012239;28;20940;-64
2021/07/09 04:59:33;;;;;;;32.27;29.47;;;18.10;99.90;;;;;;5012026;28;20488;-65
2021/07/09 05:02:00;;;;;;;31.50;28.80;;;18.20;99.90;;;;;;5011757;28;20450;-64
2021/07/09 05:04:26;;;;;;;32.07;29.17;;;18.30;99.90;;;;;;5012198;28;20998;-64
2021/07/09 05:06:53;;;;;;;32.07;29.57;;;18.40;99.90;;;;;;5012153;28;20446;-65
2021/07/09 05:09:21;;;;;;;31.87;29.07;;;18.50;99.90;;;;;;5012098;28;20438;-65
2021/07/09 05:11:48;;;;;;;32.17;29.37;;;18.50;99.90;;;;;;5011785;28;20449;-65
2021/07/09 05:14:15;;;;;;;33.97;31.07;;;18.50;99.90;;;;;;5011954;28;20868;-64
2021/07/09 05:16:41;;;;;;;34.10;31.23;;;18.50;99.90;;;;;;5011940;28;20454;-64
2021/07/09 05:19:09;;;;;;;33.67;30.57;;;18.50;99.90;;;;;;5011920;28;20836;-64
2021/07/09 05:21:36;;;;;;;33.10;30.20;;;18.50;99.90;;;;;;5011692;28;20541;-64
2021/07/09 05:24:06;;;;;;;36.23;32.60;;;18.50;99.90;;;;;;5011765;28;20987;-65
2021/07/09 05:26:34;;;;;;;34.57;31.50;;;18.50;99.90;;;;;;5011890;28;20450;-65
2021/07/09 05:29:01;;;;;;;33.53;30.80;;;18.50;99.90;;;;;;5011778;28;20446;-65
2021/07/09 05:31:28;;;;;;;32.00;29.17;;;18.50;99.90;;;;;;5011655;28;20460;-62
2021/07/09 05:33:54;;;;;;;35.03;32.03;;;18.50;99.90;;;;;;5011589;28;20991;-65
2021/07/09 05:36:22;;;;;;;34.50;31.50;;;18.50;99.90;;;;;;5011695;28;20450;-64
2021/07/09 05:38:48;;;;;;;34.50;31.57;;;18.50;99.90;;;;;;5011773;28;21157;-64
2021/07/09 05:41:15;;;;;;;35.97;32.80;;;18.50;99.90;;;;;;5011597;28;20446;-65
2021/07/09 05:43:43;;;;;;;31.63;28.73;;;18.50;99.90;;;;;;5011610;28;20449;-64
2021/07/09 05:46:11;;;;;;;33.97;30.80;;;18.50;99.90;;;;;;5011665;28;20453;-64
2021/07/09 05:48:38;;;;;;;32.50;29.67;;;18.60;99.90;;;;;;5011804;28;20533;-64
2021/07/09 05:51:05;;;;;;;33.23;30.17;;;18.60;99.90;;;;;;5011379;28;20445;-63
2021/07/09 05:53:32;;;;;;;34.70;31.53;;;18.60;99.90;;;;;;5011638;28;20444;-64
2021/07/09 05:55:59;;;;;;;36.50;32.80;;;18.60;99.90;;;;;;5011621;28;20813;-65
2021/07/09 05:58:26;;;;;;;34.03;31.50;;;18.60;99.90;;;;;;5011670;28;20441;-64
2021/07/09 06:00:54;;;;;;;35.20;32.13;;;18.70;99.90;;;;;;5011565;28;20937;-63
2021/07/09 06:03:21;;;;;;;38.27;34.50;;;18.70;99.90;;;;;;5011232;28;20450;-63
2021/07/09 06:05:48;;;;;;;37.43;34.10;;;18.90;99.90;;;;;;5011327;28;20470;-66
2021/07/09 06:08:14;;;;;;;37.10;34.00;;;18.90;99.90;;;;;;5011368;28;20859;-64
2021/07/09 06:10:41;;;;;;;37.30;34.17;;;19.10;99.90;;;;;;5011282;28;20449;-64
2021/07/09 06:13:09;;;;;;;35.83;32.87;;;19.20;99.90;;;;;;5012779;28;20529;-64
2021/07/09 06:15:36;;;;;;;35.77;32.53;;;19.30;99.90;;;;;;5015029;28;20476;-64
2021/07/09 06:18:04;;;;;;;36.07;32.93;;;19.30;99.90;;;;;;5015070;28;20450;-64
2021/07/09 06:20:31;;;;;;;36.07;33.00;;;19.30;99.90;;;;;;5014874;28;20489;-65
2021/07/09 06:22:57;;;;;;;35.43;32.63;;;19.40;99.90;;;;;;5014816;28;20449;-65
2021/07/09 06:25:24;;;;;;;37.77;34.77;;;19.60;99.90;;;;;;5037858;23;20489;-64
2021/07/09 06:27:51;;;;;;;36.90;34.00;;;19.70;99.90;;;;;;5014465;28;20444;-65
2021/07/09 06:30:18;;;;;;;37.83;34.93;;;19.90;99.90;;;;;;5014541;28;20445;-65
2021/07/09 06:32:44;;;;;;;36.30;33.40;;;19.90;99.90;;;;;;5014525;28;20442;-67
2021/07/09 06:35:13;;;;;;;35.73;32.97;;;19.90;99.90;;;;;;5014383;28;20453;-65
2021/07/09 06:37:40;;;;;;;38.47;35.23;;;20.00;99.90;;;;;;5014438;28;20442;-66
2021/07/09 06:40:10;;;;;;;37.77;34.67;;;20.10;99.90;;;;;;5014302;28;20491;-65
2021/07/09 06:42:37;;;;;;;38.47;34.80;;;20.10;99.90;;;;;;5014096;28;20454;-65
2021/07/09 06:45:05;;;;;;;37.83;35.03;;;20.10;99.90;;;;;;5014271;28;20839;-66
2021/07/09 06:47:31;;;;;;;37.33;34.07;;;20.20;99.90;;;;;;5014244;28;20807;-66
2021/07/09 06:49:58;;;;;;;39.83;36.20;;;20.30;99.90;;;;;;5014211;28;20450;-66
2021/07/09 06:52:26;;;;;;;38.63;35.17;;;20.30;99.90;;;;;;5013949;28;20430;-65
2021/07/09 06:54:53;;;;;;;37.70;34.47;;;20.30;99.90;;;;;;5013902;28;20466;-65
2021/07/09 06:57:20;;;;;;;36.90;33.67;;;20.50;99.90;;;;;;5014082;28;20446;-65
2021/07/09 06:59:46;;;;;;;36.37;33.27;;;20.60;99.90;;;;;;5013956;28;20477;-64
2021/07/09 07:02:13;;;;;;;38.67;35.57;;;20.50;99.90;;;;;;5013653;28;20939;-66
2021/07/09 07:04:40;;;;;;;39.37;36.30;;;20.50;99.90;;;;;;5014005;28;20967;-65
2021/07/09 07:07:07;;;;;;;37.37;34.43;;;20.60;99.90;;;;;;5014056;28;20573;-66
2021/07/09 07:09:37;;;;;;;41.03;37.33;;;20.70;99.90;;;;;;5013823;28;20438;-65
2021/07/09 07:12:06;;;;;;;39.40;36.27;;;20.70;99.90;;;;;;5013648;28;20488;-65
2021/07/09 07:14:33;;;;;;;39.00;35.60;;;20.70;99.90;;;;;;5013778;28;20473;-66
2021/07/09 07:17:00;;;;;;;37.27;34.27;;;20.70;99.90;;;;;;5013895;28;20874;-65
2021/07/09 07:19:26;;;;;;;39.80;36.67;;;20.60;99.90;;;;;;5013679;28;20481;-65
2021/07/09 07:21:53;;;;;;;37.13;34.30;;;20.70;99.90;;;;;;5013329;28;20476;-66
2021/07/09 07:24:20;;;;;;;37.37;34.20;;;20.80;99.90;;;;;;5012083;28;21043;-65
2021/07/09 07:26:48;;;;;;;36.47;33.37;;;20.90;99.90;;;;;;5000477;28;20454;-67
2021/07/09 07:29:15;;;;;;;38.90;35.60;;;20.70;99.90;;;;;;5004663;28;20459;-67
2021/07/09 07:31:42;;;;;;;38.40;35.30;;;20.80;99.90;;;;;;4993726;28;20454;-66
2021/07/09 07:34:09;;;;;;;38.73;35.23;;;21.10;99.90;;;;;;4997233;28;20443;-65
2021/07/09 07:36:35;;;;;;;38.60;35.23;;;21.20;99.90;;;;;;4993826;28;20458;-65
2021/07/09 07:39:02;;;;;;;38.30;35.00;;;21.30;99.90;;;;;;4993734;28;20497;-65
2021/07/09 07:41:29;;;;;;;42.10;38.30;;;21.50;99.90;;;;;;4993521;28;20454;-65
2021/07/09 07:43:57;;;;;;;37.90;34.70;;;21.80;99.90;;;;;;4998279;28;20962;-65
2021/07/09 07:46:25;;;;;;;39.13;36.10;;;21.60;99.90;;;;;;5011407;28;20456;-65
2021/07/09 07:48:53;;;;;;;38.90;35.60;;;21.70;99.90;;;;;;5002628;28;20454;-66
2021/07/09 07:51:19;;;;;;;40.60;37.40;;;21.90;99.90;;;;;;5001034;28;20467;-66
2021/07/09 07:53:46;;;;;;;40.10;36.87;;;21.90;99.90;;;;;;5001230;28;20446;-65
2021/07/09 07:56:15;;;;;;;37.83;35.00;;;22.00;99.90;;;;;;4991630;28;20479;-65
2021/07/09 07:58:42;;;;;;;37.27;34.20;;;22.20;99.90;;;;;;4981579;28;20461;-65
2021/07/09 08:01:12;;;;;;;39.97;36.70;;;22.30;99.90;;;;;;4983446;28;20486;-65
2021/07/09 08:03:39;;;;;;;37.50;34.57;;;22.50;99.90;;;;;;4981507;28;20875;-65
2021/07/09 08:06:06;;;;;;;38.80;36.10;;;22.80;99.90;;;;;;4981361;28;20951;-65
2021/07/09 08:08:33;;;;;;;37.57;34.77;;;23.10;99.90;;;;;;4982290;28;20451;-65
2021/07/09 08:11:00;;;;;;;37.30;34.53;;;23.60;99.90;;;;;;4981314;28;20439;-65
2021/07/09 08:13:27;;;;;;;35.90;33.33;;;23.70;99.90;;;;;;4981317;28;20888;-66
2021/07/09 08:15:53;;;;;;;37.30;34.57;;;23.80;99.90;;;;;;4981283;28;20959;-66
2021/07/09 08:18:22;;;;;;;37.37;34.23;;;24.30;99.90;;;;;;4986751;28;20462;-66
2021/07/09 08:20:48;;;;;;;36.27;33.57;;;24.20;99.90;;;;;;5000865;28;21008;-65
2021/07/09 08:23:15;;;;;;;34.00;31.90;;;24.50;99.90;;;;;;5000252;28;20462;-68
2021/07/09 08:25:42;;;;;;;35.57;33.07;;;24.80;99.90;;;;;;4996868;28;21137;-65
2021/07/09 08:28:08;;;;;;;35.63;32.73;;;24.50;99.90;;;;;;4982280;28;20451;-66
2021/07/09 08:30:35;;;;;;;36.50;34.13;;;24.10;99.90;;;;;;4993769;28;20449;-66
2021/07/09 08:33:02;;;;;;;36.90;34.00;;;24.20;99.90;;;;;;4994023;28;20470;-66
2021/07/09 08:35:30;;;;;;;35.57;33.07;;;24.60;99.90;;;;;;4988510;28;20477;-66
2021/07/09 08:37:56;;;;;;;36.53;33.87;;;24.60;99.90;;;;;;5001034;28;20930;-66
2021/07/09 08:40:23;;;;;;;32.87;30.47;;;24.50;99.90;;;;;;5001118;28;21088;-66
2021/07/09 08:42:50;;;;;;;32.90;30.70;;;24.50;99.90;;;;;;5000753;28;20450;-66
2021/07/09 08:45:17;;;;;;;31.80;29.40;;;24.20;99.90;;;;;;5000253;28;20772;-65
2021/07/09 08:47:43;;;;;;;34.37;32.17;;;24.10;99.90;;;;;;5000356;28;20446;-65
2021/07/09 08:50:12;;;;;;;36.47;33.37;;;23.80;99.90;;;;;;5000240;28;20473;-65
2021/07/09 08:52:40;;;;;;;36.20;33.30;;;23.60;99.90;;;;;;5000250;28;20564;-66
2021/07/09 08:55:11;;;;;;;33.07;30.57;;;23.10;99.90;;;;;;5000423;28;20481;-66
2021/07/09 08:57:39;;;;;;;33.27;30.77;;;23.20;99.90;;;;;;5000370;28;20458;-65
2021/07/09 09:00:07;;;;;;;34.70;32.23;;;23.10;99.90;;;;;;5000067;28;20489;-66
2021/07/09 09:02:34;;;;;;;32.53;30.40;;;22.80;99.90;;;;;;4999768;28;20914;-66
2021/07/09 09:05:00;;;;;;;33.87;31.27;;;22.60;99.90;;;;;;4999944;28;20477;-65
2021/07/09 09:07:29;;;;;;;32.20;29.90;;;22.50;99.90;;;;;;5000149;28;20450;-66
2021/07/09 09:09:57;;;;;;;32.27;29.97;;;22.50;99.90;;;;;;4999879;28;20478;-66
2021/07/09 09:12:24;;;;;;;31.40;29.20;;;22.60;99.90;;;;;;4999870;28;20450;-65
2021/07/09 09:14:52;;;;;;;33.23;31.10;;;22.70;99.90;;;;;;4999854;28;20470;-65
2021/07/09 09:17:31;;;;;;;36.00;32.73;;;22.90;99.90;;;;;;4999756;28;20563;-66
2021/07/09 09:20:13;;;;;;;32.90;30.60;;;23.20;99.90;;;;;;4999928;28;20488;-66
2021/07/09 09:22:55;;;;;;;30.93;28.77;;;23.40;99.90;;;;;;4999929;28;20489;-66
2021/07/09 09:25:26;;;;;;;31.03;28.90;;;23.60;99.90;;;;;;4999639;28;20489;-66
2021/07/09 09:28:06;;;;;;;30.10;28.00;;;23.80;99.90;;;;;;4999975;28;20971;-65
2021/07/09 09:30:33;;;;;;;30.73;28.63;;;23.90;99.90;;;;;;4999776;28;20918;-66
2021/07/09 09:33:03;;;;;;;34.17;29.57;;;24.30;99.90;;;;;;4999684;28;20446;-66
2021/07/09 09:35:32;;;;;;;30.37;27.90;;;24.60;99.90;;;;;;4999190;28;20470;-66
2021/07/09 09:38:00;;;;;;;32.17;29.53;;;24.90;99.90;;;;;;4999807;28;21155;-65
2021/07/09 09:40:32;;;;;;;31.50;28.90;;;25.00;99.90;;;;;;4999451;28;20493;-66
2021/07/09 09:43:04;;;;;;;30.40;28.30;;;25.10;99.90;;;;;;4999619;28;20457;-66
2021/07/09 09:45:31;;;;;;;31.30;29.23;;;24.90;99.90;;;;;;4999679;28;20485;-66
2021/07/09 09:48:05;;;;;;;30.80;28.77;;;25.00;99.90;;;;;;5000799;28;20461;-65
2021/07/09 09:50:32;;;;;;;29.63;27.77;;;24.90;99.90;;;;;;4999730;28;20443;-66
2021/07/09 09:52:58;;;;;;;28.50;26.50;;;24.90;99.90;;;;;;4995631;28;20461;-66
2021/07/09 09:55:33;;;;;;;29.60;27.07;;;25.00;99.90;;;;;;4987088;28;20481;-65
2021/07/09 09:58:10;;;;;;;29.10;27.07;;;25.40;99.90;;;;;;4992837;28;20477;-66
2021/07/09 10:00:37;;;;;;;27.93;25.97;;;25.50;99.90;;;;;;4990155;28;20490;-66
2021/07/09 10:03:04;;;;;;;27.43;25.40;;;25.60;99.90;;;;;;4983351;28;20461;-66
2021/07/09 10:05:38;;;;;;;27.57;25.77;;;25.60;99.90;;;;;;4988146;28;21096;-66
2021/07/09 10:08:06;;;;;;;28.07;26.07;;;25.90;98.90;;;;;;4984095;28;20589;-66
2021/07/09 10:10:34;;;;;;;28.13;26.23;;;26.00;98.50;;;;;;4984645;28;20923;-66
2021/07/09 10:13:01;;;;;;;28.20;26.50;;;26.00;96.60;;;;;;4984794;28;20453;-66
2021/07/09 10:15:29;;;;;;;27.67;25.87;;;25.70;97.70;;;;;;4985606;28;20923;-66
2021/07/09 10:17:56;;;;;;;26.73;25.27;;;25.80;97.40;;;;;;5003032;28;20454;-65
2021/07/09 10:20:24;;;;;;;27.50;25.13;;;25.60;97.50;;;;;;4991724;28;20485;-66
2021/07/09 10:22:52;;;;;;;25.23;23.73;;;25.70;97.00;;;;;;4996538;28;20458;-66
2021/07/09 10:25:22;;;;;;;26.73;24.97;;;25.30;96.60;;;;;;5002475;28;20505;-66
2021/07/09 10:27:51;;;;;;;26.23;24.70;;;25.30;96.10;;;;;;4998131;28;20459;-66
2021/07/09 10:30:18;;;;;;;27.00;25.40;;;25.20;97.00;;;;;;4998611;28;21290;-66
2021/07/09 10:32:48;;;;;;;26.10;24.30;;;25.00;94.70;;;;;;5002829;28;20461;-66
2021/07/09 10:35:34;;;;;;;26.77;25.07;;;25.00;95.60;;;;;;5001459;28;21080;-66
2021/07/09 10:38:14;;;;;;;26.37;24.73;;;25.40;95.10;;;;;;5001987;28;20547;-68
2021/07/09 10:40:41;;;;;;;27.87;25.90;;;25.20;94.20;;;;;;5003785;28;20484;-67
2021/07/09 10:43:11;;;;;;;26.67;25.17;;;25.30;93.40;;;;;;5003070;28;20453;-68
2021/07/09 10:45:38;;;;;;;25.73;24.27;;;25.40;93.10;;;;;;4993920;28;20506;-68
2021/07/09 10:48:09;;;;;;;24.50;23.20;;;25.50;90.80;;;;;;5003333;28;20457;-69
2021/07/09 10:50:41;;;;;;;24.93;23.63;;;25.60;89.20;;;;;;4986354;28;20458;-69
2021/07/09 10:53:25;;;;;;;24.67;23.20;;;25.70;86.60;;;;;;4984143;28;20673;-68
2021/07/09 10:55:59;;;;;;;25.67;23.90;;;26.10;86.00;;;;;;4989692;28;20481;-67
2021/07/09 10:58:33;;;;;;;26.10;24.30;;;26.70;84.00;;;;;;4998300;28;20458;-67
2021/07/09 11:01:10;;;;;;;24.43;23.30;;;26.30;82.40;;;;;;4983947;28;20526;-68
2021/07/09 11:03:39;;;;;;;29.53;27.63;;;26.60;80.90;;;;;;4983550;28;20450;-67
2021/07/09 11:06:10;;;;;;;24.83;23.53;;;26.70;77.90;;;;;;4990696;28;20481;-68
2021/07/09 11:09:05;;;;;;;25.57;24.27;;;26.50;79.20;;;;;;5002688;28;20454;-68
2021/07/09 11:11:38;;;;;;;26.33;24.80;;;26.10;77.30;;;;;;4989498;28;20819;-67
2021/07/09 11:14:07;;;;;;;24.90;23.47;;;25.90;76.10;;;;;;4999585;28;20454;-67
2021/07/09 11:16:36;;;;;;;22.83;21.73;;;25.50;74.80;;;;;;4982821;28;20458;-67
2021/07/09 11:19:17;;;;;;;23.90;22.70;;;25.80;76.60;;;;;;4986116;28;20462;-66
2021/07/09 11:22:00;;;;;;;24.37;23.07;;;25.90;72.30;;;;;;5002134;28;20489;-66
2021/07/09 11:24:29;;;;;;;25.53;24.23;;;26.30;71.20;;;;;;4982566;28;20486;-67
2021/07/09 11:26:57;;;;;;;24.30;22.97;;;26.50;69.90;;;;;;4992088;28;20456;-66
2021/07/09 11:29:31;;;;;;;24.63;23.37;;;26.40;70.70;;;;;;4997357;28;20582;-67
2021/07/09 11:31:59;;;;;;;23.80;22.53;;;26.10;68.20;;;;;;4982854;28;20451;-67
2021/07/09 11:34:28;;;;;;;24.20;22.57;;;26.60;67.50;;;;;;4982656;28;20466;-66
2021/07/09 11:36:57;;;;;;;24.10;23.00;;;26.60;67.30;;;;;;4982820;28;20455;-67
2021/07/09 11:39:26;;;;;;;25.87;24.67;;;26.80;66.40;;;;;;4987227;28;21245;-66
2021/07/09 11:41:56;;;;;;;24.57;23.37;;;28.20;65.70;;;;;;5001974;28;20485;-67
2021/07/09 11:44:25;;;;;;;24.93;23.83;;;29.90;60.90;;;;;;5002212;28;20476;-67
2021/07/09 11:46:57;;;;;;;24.60;23.50;;;32.00;55.00;;;;;;5001707;28;20499;-67
2021/07/09 11:49:25;;;;;;;25.80;24.60;;;33.20;49.30;;;;;;4997982;28;20454;-67
2021/07/09 11:51:57;;;;;;;24.23;23.03;;;31.20;47.90;;;;;;4982500;28;20449;-67
2021/07/09 11:54:27;;;;;;;25.57;24.40;;;30.50;50.60;;;;;;4982432;28;20474;-67
2021/07/09 11:57:02;;;;;;;24.87;23.67;;;33.10;49.20;;;;;;4982502;28;20457;-66
2021/07/09 11:59:30;;;;;;;26.30;25.10;;;34.80;46.00;;;;;;4986688;28;21033;-65
2021/07/09 12:02:15;;;;;;;23.87;22.87;;;36.10;40.90;;;;;;4981731;28;21146;-65
2021/07/09 12:04:44;;;;;;;26.17;24.97;;;36.90;39.10;;;;;;4981871;28;21077;-65
2021/07/09 12:07:29;;;;;;;22.73;21.73;;;34.70;38.90;;;;;;4982096;28;20210;-69
2021/07/09 12:09:59;;;;;;;24.50;23.40;;;36.00;40.10;;;;;;4989266;28;20209;-66
2021/07/09 12:12:28;;;;;;;26.03;24.63;;;35.30;39.70;;;;;;5000965;28;20202;-66
2021/07/09 12:15:01;;;;;;;26.23;25.03;;;34.50;39.60;;;;;;5001221;28;20976;-66
2021/07/09 12:17:31;;;;;;;24.40;23.20;;;34.90;40.80;;;;;;4999843;28;20202;-66
2021/07/09 12:20:01;;;;;;;24.50;23.47;;;34.40;41.20;;;;;;4990394;28;20527;-66
2021/07/09 12:22:31;;;;;;;26.40;25.25;;;37.20;38.90;;;;;;4981437;28;20237;-66
2021/07/09 12:25:01;;;;;;;24.70;23.40;;;34.60;37.50;;;;;;4983423;28;20231;-66
2021/07/09 12:27:29;;;;;;;24.77;23.60;;;32.90;40.80;;;;;;4993396;28;21097;-68
2021/07/09 12:29:56;;;;;;;23.60;22.50;;;30.90;44.30;;;;;;5000940;28;20556;-68
2021/07/09 12:32:23;;;;;;;24.70;23.50;;;29.20;46.60;;;;;;4999267;28;20446;-66
2021/07/09 12:35:03;;;;;;;24.80;23.57;;;28.50;48.50;;;;;;4984164;28;20467;-67